This is the latest recevied weather packets stored in our database for station/object DG1JLA-3. If no packets are shown the sender has not sent any weather packets the latest 1 day(s).
| Time | Temp. | Humidity | Pressure | Rain* | Wind** | Luminosity | Snow |
|---|---|---|---|---|---|---|---|
| 1778075087 | 18.89° C | 61% | 1007.8 hPa | 0 mm | - | - | - |
| 1778074787 | 18.89° C | 61% | 1007.7 hPa | 0 mm | - | - | - |
| 1778074487 | 18.89° C | 65% | 1007.8 hPa | 0 mm | - | - | - |
| 1778074187 | 18.89° C | 63% | 1007.7 hPa | 0 mm | - | - | - |
| 1778073587 | 18.89° C | 61% | 1007.7 hPa | 0 mm | - | - | - |
| 1778073287 | 19.44° C | 62% | 1007.9 hPa | 0 mm | - | - | - |
| 1778072387 | 18.89° C | 64% | 1007.9 hPa | 0 mm | - | - | - |
| 1778071787 | 19.44° C | 64% | 1007.8 hPa | 0 mm | - | - | - |
| 1778071487 | 18.89° C | 63% | 1007.8 hPa | 0 mm | - | - | - |
| 1778071187 | 18.89° C | 63% | 1008 hPa | 0 mm | - | - | - |
| 1778070887 | 19.44° C | 62% | 1008 hPa | 0 mm | - | - | - |
| 1778070587 | 19.44° C | 62% | 1008.2 hPa | 0 mm | - | - | - |
| 1778069087 | 18.89° C | 66% | 1008.1 hPa | 0 mm | - | - | - |
| 1778067887 | 18.89° C | 65% | 1008 hPa | 0 mm | - | - | - |
| 1778067287 | 18.33° C | 64% | 1008.1 hPa | 0 mm | - | - | - |
| 1778066687 | 18.33° C | 66% | 1008.2 hPa | 0 mm | - | - | - |
| 1778064587 | 18.33° C | 69% | 1008.2 hPa | 0 mm | - | - | - |
| 1778063387 | 17.78° C | 69% | 1008.4 hPa | 0 mm | - | - | - |
| 1778057088 | 15.56° C | 75% | 1007.8 hPa | 0.25 mm | - | - | - |
| 1778056788 | 15.56° C | 74% | 1007.8 hPa | 0.25 mm | - | - | - |
| 1778056488 | 15.56° C | 74% | 1007.6 hPa | 0.25 mm | - | - | - |
| 1778055888 | 15.56° C | 71% | 1007.4 hPa | 0.25 mm | - | - | - |
| 1778055588 | 16.11° C | 72% | 1007.5 hPa | 0.25 mm | - | - | - |
| 1778055288 | 16.11° C | 73% | 1007.4 hPa | 0.25 mm | - | - | - |
| 1778054988 | 16.11° C | 74% | 1007.4 hPa | 0.25 mm | - | - | - |
* Rain latest hour (hover to see other rain measurements)
** Current wind speed in m/s (hover to see current wind gust speed)